createdAt,value
2018-03-22T00:00:21.475Z,10.63
2018-03-22T00:01:23.955Z,10.68
2018-03-22T00:02:26.442Z,11.77
2018-03-22T00:03:28.946Z,12.05
2018-03-22T00:04:31.435Z,11.45
2018-03-22T00:05:33.923Z,10.50
2018-03-22T00:06:36.403Z,12.02
2018-03-22T00:07:38.888Z,11.82
2018-03-22T00:08:41.369Z,10.40
2018-03-22T00:09:44.615Z,11.05
2018-03-22T00:10:47.118Z,10.73
2018-03-22T00:11:50.359Z,11.63
2018-03-22T00:12:52.893Z,10.52
2018-03-22T00:13:55.427Z,11.48
2018-03-22T00:14:58.665Z,10.30
2018-03-22T00:16:01.159Z,10.40
2018-03-22T00:17:03.739Z,10.75
2018-03-22T00:18:06.979Z,10.52
2018-03-22T00:19:09.450Z,10.77
2018-03-22T00:20:11.930Z,11.32
2018-03-22T00:21:14.426Z,11.38
2018-03-22T00:22:29.606Z,10.77
2018-03-22T00:23:32.095Z,10.43
2018-03-22T00:24:34.604Z,11.32
2018-03-22T00:25:37.079Z,11.73
2018-03-22T00:26:40.359Z,11.18
2018-03-22T00:27:43.608Z,11.10
2018-03-22T00:28:46.089Z,11.63
2018-03-22T00:29:48.664Z,11.60
2018-03-22T00:30:51.134Z,11.38
2018-03-22T00:31:54.399Z,12.60
2018-03-22T00:32:56.875Z,11.38
2018-03-22T00:33:59.378Z,11.88
2018-03-22T00:35:01.852Z,12.45
2018-03-22T00:36:04.342Z,12.15
2018-03-22T00:37:06.839Z,11.43
2018-03-22T00:38:09.329Z,12.73
2018-03-22T00:39:11.807Z,11.95
2018-03-22T00:40:14.284Z,11.65
2018-03-22T00:41:16.755Z,12.82
2018-03-22T00:42:19.247Z,11.23
2018-03-22T00:43:21.721Z,11.95
2018-03-22T00:44:24.196Z,11.90
2018-03-22T00:45:27.434Z,11.52
2018-03-22T00:46:29.905Z,11.88
2018-03-22T00:47:32.711Z,11.52
2018-03-22T00:48:35.949Z,12.15
2018-03-22T00:49:38.453Z,12.40
2018-03-22T00:50:40.920Z,11.85
2018-03-22T00:51:43.388Z,11.98
2018-03-22T00:52:46.646Z,11.88
2018-03-22T00:53:49.121Z,11.27
2018-03-22T00:54:51.593Z,11.25
2018-03-22T00:55:54.067Z,10.95
2018-03-22T00:56:57.302Z,11.27
2018-03-22T00:57:59.794Z,11.43
2018-03-22T00:59:02.276Z,11.40
2018-03-22T01:00:05.512Z,11.27
2018-03-22T01:01:08.014Z,11.60
2018-03-22T01:02:10.501Z,11.12
2018-03-22T01:03:13.754Z,11.93
2018-03-22T01:04:16.221Z,11.55
2018-03-22T01:05:19.466Z,11.02
2018-03-22T01:06:21.930Z,11.27
2018-03-22T01:07:24.400Z,11.43
2018-03-22T01:08:26.910Z,11.95
2018-03-22T01:09:30.147Z,11.82
2018-03-22T01:10:32.646Z,11.93
2018-03-22T01:11:35.119Z,11.43
2018-03-22T01:12:37.586Z,11.82
2018-03-22T01:13:41.166Z,11.75
2018-03-22T01:14:44.407Z,12.02
2018-03-22T01:15:46.894Z,12.15
2018-03-22T01:16:49.374Z,11.93
2018-03-22T01:17:51.856Z,11.77
2018-03-22T01:18:55.370Z,13.00
2018-03-22T01:19:57.851Z,12.70
2018-03-22T01:21:00.362Z,13.00
2018-03-22T01:22:02.842Z,12.50
2018-03-22T01:23:06.079Z,12.73
2018-03-22T01:24:08.566Z,11.60
2018-03-22T01:25:11.066Z,12.15
2018-03-22T01:26:13.547Z,13.15
2018-03-22T01:27:16.027Z,12.77
2018-03-22T01:28:18.498Z,12.88
2018-03-22T01:29:20.983Z,12.65
2018-03-22T01:30:35.314Z,12.85
2018-03-22T01:31:37.787Z,12.88
2018-03-22T01:32:40.278Z,13.10
2018-03-22T01:33:43.517Z,13.77
2018-03-22T01:34:46.034Z,13.18
2018-03-22T01:35:49.270Z,12.88
2018-03-22T01:36:51.758Z,13.88
2018-03-22T01:37:54.239Z,13.70
2018-03-22T01:38:57.483Z,13.07
2018-03-22T01:39:59.980Z,13.50
2018-03-22T01:41:03.222Z,13.05
2018-03-22T01:42:05.702Z,15.05
2018-03-22T01:43:08.168Z,14.07
2018-03-22T01:44:10.638Z,13.32
2018-03-22T01:45:13.126Z,14.43
2018-03-22T01:46:16.357Z,13.85
2018-03-22T01:47:18.866Z,13.73
2018-03-22T01:48:21.339Z,14.50
2018-03-22T01:49:24.618Z,14.50
2018-03-22T01:50:27.138Z,14.27
2018-03-22T01:51:29.606Z,14.93
2018-03-22T01:52:32.086Z,14.13
2018-03-22T01:53:34.555Z,13.98
2018-03-22T01:54:37.026Z,15.13
2018-03-22T01:55:39.517Z,14.60
2018-03-22T01:56:42.758Z,14.48
2018-03-22T01:57:45.227Z,14.87
2018-03-22T01:58:47.713Z,14.00
2018-03-22T01:59:50.187Z,15.05
2018-03-22T02:00:53.765Z,15.18
2018-03-22T02:01:57.741Z,15.02
2018-03-22T02:03:00.211Z,13.88
2018-03-22T02:04:02.706Z,13.55
2018-03-22T02:05:05.964Z,14.20
2018-03-22T02:06:08.466Z,15.43
2018-03-22T02:07:11.734Z,14.43
2018-03-22T02:08:14.971Z,14.05
2018-03-22T02:09:17.491Z,14.02
2018-03-22T02:10:20.754Z,14.02
2018-03-22T02:11:23.332Z,14.27
2018-03-22T02:12:26.570Z,15.35
2018-03-22T02:13:29.042Z,14.43
2018-03-22T02:14:31.512Z,14.25
2018-03-22T02:15:33.982Z,14.18
2018-03-22T02:16:36.467Z,13.80
2018-03-22T02:17:38.960Z,13.80
2018-03-22T02:18:41.502Z,14.27
2018-03-22T02:19:44.750Z,14.13
2018-03-22T02:20:47.223Z,13.30
2018-03-22T02:21:49.716Z,13.30
2018-03-22T02:22:52.973Z,13.75
2018-03-22T02:23:55.438Z,11.82
2018-03-22T02:24:57.903Z,13.48
2018-03-22T02:26:00.374Z,13.95
2018-03-22T02:27:02.883Z,13.07
2018-03-22T02:28:05.357Z,13.88
2018-03-22T02:29:07.836Z,13.88
2018-03-22T02:30:10.310Z,13.52
2018-03-22T02:31:12.781Z,13.98
2018-03-22T02:32:15.274Z,13.65
2018-03-22T02:33:17.747Z,13.50
2018-03-22T02:34:20.982Z,12.45
2018-03-22T02:35:23.470Z,13.35
2018-03-22T02:36:25.945Z,13.25
2018-03-22T02:37:28.435Z,13.82
2018-03-22T02:38:31.700Z,13.18
2018-03-22T02:39:34.940Z,13.02
2018-03-22T02:40:37.419Z,12.82
2018-03-22T02:41:39.911Z,12.73
2018-03-22T02:42:42.407Z,12.88
2018-03-22T02:43:44.885Z,14.05
2018-03-22T02:44:47.356Z,13.20
2018-03-22T02:45:49.830Z,13.55
2018-03-22T02:46:52.293Z,13.57
2018-03-22T02:47:54.787Z,12.95
2018-03-22T02:48:57.267Z,13.55
2018-03-22T02:50:00.540Z,13.32
2018-03-22T02:51:03.093Z,14.05
2018-03-22T02:52:05.524Z,13.85
2018-03-22T02:53:08.338Z,14.00
2018-03-22T02:54:10.805Z,14.05
2018-03-22T02:55:13.275Z,13.80
2018-03-22T02:56:15.774Z,14.57
2018-03-22T02:57:18.246Z,14.60
2018-03-22T02:58:20.730Z,14.52
2018-03-22T02:59:23.198Z,14.30
2018-03-22T03:00:25.690Z,14.07
2018-03-22T03:01:28.169Z,13.90
2018-03-22T03:02:31.405Z,13.95
2018-03-22T03:03:33.892Z,15.07
2018-03-22T03:04:36.374Z,14.27
2018-03-22T03:05:38.947Z,13.68
2018-03-22T03:06:42.178Z,14.18
2018-03-22T03:07:44.651Z,14.57
2018-03-22T03:08:47.143Z,13.75
2018-03-22T03:09:49.614Z,14.65
2018-03-22T03:10:52.102Z,15.25
2018-03-22T03:11:55.770Z,13.82
2018-03-22T03:12:58.251Z,15.13
2018-03-22T03:14:01.505Z,14.87
2018-03-22T03:15:03.979Z,14.45
2018-03-22T03:16:06.554Z,14.40
2018-03-22T03:17:09.031Z,14.02
2018-03-22T03:18:12.264Z,13.82
2018-03-22T03:19:15.063Z,13.93
2018-03-22T03:20:17.534Z,14.10
2018-03-22T03:21:20.010Z,14.13
2018-03-22T03:22:23.251Z,14.38
2018-03-22T03:23:25.728Z,13.40
2018-03-22T03:24:28.319Z,14.25
2018-03-22T03:25:30.812Z,14.15
2018-03-22T03:26:33.290Z,13.88
2018-03-22T03:27:35.762Z,12.68
2018-03-22T03:28:38.278Z,13.68
2018-03-22T03:29:41.531Z,14.25
2018-03-22T03:30:44.055Z,13.38
2018-03-22T03:31:46.530Z,13.32
2018-03-22T03:32:49.012Z,12.63
2018-03-22T03:33:51.483Z,13.52
2018-03-22T03:34:53.972Z,14.00
2018-03-22T03:35:57.214Z,12.90
2018-03-22T03:36:59.681Z,14.32
2018-03-22T03:38:02.149Z,13.48
2018-03-22T03:39:04.615Z,13.57
2018-03-22T03:40:07.113Z,14.63
2018-03-22T03:41:11.115Z,13.32
2018-03-22T03:42:14.358Z,13.25
2018-03-22T03:43:16.828Z,13.90
2018-03-22T03:44:19.304Z,13.13
2018-03-22T03:45:21.794Z,13.20
2018-03-22T03:46:24.266Z,13.48
2018-03-22T03:47:27.498Z,13.05
2018-03-22T03:48:29.970Z,13.60
2018-03-22T03:49:32.447Z,13.40
2018-03-22T03:50:35.035Z,14.00
2018-03-22T03:51:37.866Z,13.95
2018-03-22T03:52:40.338Z,13.88
2018-03-22T03:53:42.806Z,13.50
2018-03-22T03:54:45.270Z,14.43
2018-03-22T03:55:47.868Z,14.48
2018-03-22T03:56:50.341Z,13.65
2018-03-22T03:57:53.577Z,13.30
2018-03-22T03:58:56.062Z,12.77
2018-03-22T03:59:58.529Z,14.00
2018-03-22T04:01:01.026Z,13.60
2018-03-22T04:02:04.299Z,13.68
2018-03-22T04:03:06.778Z,14.15
2018-03-22T04:04:10.017Z,13.73
2018-03-22T04:05:12.489Z,13.13
2018-03-22T04:06:14.983Z,12.68
2018-03-22T04:07:18.254Z,13.48
2018-03-22T04:08:20.742Z,13.30
2018-03-22T04:09:23.280Z,14.40
2018-03-22T04:10:25.748Z,14.15
2018-03-22T04:11:29.276Z,13.50
2018-03-22T04:12:31.758Z,14.23
2018-03-22T04:13:34.238Z,13.82
2018-03-22T04:14:36.719Z,14.60
2018-03-22T04:15:39.214Z,13.48
2018-03-22T04:16:42.480Z,14.05
2018-03-22T04:17:45.726Z,13.70
2018-03-22T04:18:48.202Z,13.75
2018-03-22T04:19:50.688Z,13.65
2018-03-22T04:20:53.155Z,14.68
2018-03-22T04:21:55.646Z,13.90
2018-03-22T04:22:58.119Z,13.40
2018-03-22T04:24:00.610Z,14.18
2018-03-22T04:25:03.089Z,14.13
2018-03-22T04:26:05.559Z,14.15
2018-03-22T04:27:08.140Z,14.87
2018-03-22T04:28:10.667Z,13.00
2018-03-22T04:29:13.152Z,14.32
2018-03-22T04:30:15.621Z,13.85
2018-03-22T04:31:18.096Z,14.13
2018-03-22T04:32:22.207Z,14.07
2018-03-22T04:33:24.686Z,13.75
2018-03-22T04:34:27.919Z,13.73
2018-03-22T04:35:30.386Z,14.07
2018-03-22T04:36:32.867Z,14.27
2018-03-22T04:37:35.357Z,14.10
2018-03-22T04:38:38.598Z,14.07
2018-03-22T04:39:41.068Z,13.57
2018-03-22T04:40:43.534Z,14.65
2018-03-22T04:41:46.002Z,14.98
2018-03-22T04:42:48.495Z,13.82
2018-03-22T04:43:51.738Z,14.50
2018-03-22T04:44:54.210Z,13.68
2018-03-22T04:45:56.678Z,15.60
2018-03-22T04:46:59.155Z,14.45
2018-03-22T04:48:03.150Z,14.10
2018-03-22T04:49:05.622Z,14.40
2018-03-22T04:50:08.108Z,14.00
2018-03-22T04:51:11.354Z,14.13
2018-03-22T04:52:13.834Z,14.10
2018-03-22T04:53:16.320Z,15.18
2018-03-22T04:54:18.830Z,13.68
2018-03-22T04:55:21.318Z,14.57
2018-03-22T04:56:23.809Z,14.15
2018-03-22T04:57:27.042Z,14.55
2018-03-22T04:58:29.530Z,16.33
2018-03-22T04:59:32.037Z,14.25
2018-03-22T05:00:34.508Z,14.57
2018-03-22T05:01:37.079Z,14.80
2018-03-22T05:02:40.289Z,14.50
2018-03-22T05:03:42.794Z,15.18
2018-03-22T05:04:46.046Z,14.30
2018-03-22T05:05:48.519Z,14.30
2018-03-22T05:06:50.982Z,14.93
2018-03-22T05:07:53.563Z,15.05
2018-03-22T05:08:56.054Z,14.43
2018-03-22T05:09:59.291Z,15.20
2018-03-22T05:11:01.766Z,15.18
2018-03-22T05:12:04.238Z,14.52
2018-03-22T05:13:06.702Z,14.55
2018-03-22T05:14:09.578Z,13.93
2018-03-22T05:15:12.056Z,14.82
2018-03-22T05:16:15.294Z,14.65
2018-03-22T05:17:18.127Z,14.23
2018-03-22T05:18:21.366Z,14.38
2018-03-22T05:19:23.861Z,14.80
2018-03-22T05:20:27.128Z,14.43
2018-03-22T05:21:29.599Z,14.32
2018-03-22T05:22:32.834Z,14.52
2018-03-22T05:23:35.313Z,15.57
2018-03-22T05:24:37.805Z,14.52
2018-03-22T05:25:41.047Z,13.82
2018-03-22T05:26:43.592Z,14.32
2018-03-22T05:27:46.067Z,15.52
2018-03-22T05:28:48.557Z,14.48
2018-03-22T05:29:51.060Z,14.80
2018-03-22T05:30:54.322Z,15.13
2018-03-22T05:31:56.793Z,13.98
2018-03-22T05:32:59.270Z,14.00
2018-03-22T05:34:02.570Z,14.77
2018-03-22T05:35:05.066Z,14.20
2018-03-22T05:36:07.538Z,14.77
2018-03-22T05:37:10.010Z,15.27
2018-03-22T05:38:12.498Z,14.98
2018-03-22T05:39:14.988Z,14.77
2018-03-22T05:40:18.269Z,15.50
2018-03-22T05:41:21.520Z,14.70
2018-03-22T05:42:24.019Z,14.32
2018-03-22T05:43:27.255Z,14.50
2018-03-22T05:44:29.756Z,14.75
2018-03-22T05:45:33.026Z,14.70
2018-03-22T05:46:35.512Z,15.25
2018-03-22T05:47:38.788Z,13.35
2018-03-22T05:48:42.054Z,14.80
2018-03-22T05:49:44.547Z,14.23
2018-03-22T05:50:47.821Z,14.95
2018-03-22T05:51:51.095Z,14.43
2018-03-22T05:52:53.571Z,15.48
2018-03-22T05:53:56.811Z,14.10
2018-03-22T05:54:59.293Z,14.43
2018-03-22T05:56:01.822Z,14.27
2018-03-22T05:57:04.316Z,15.40
2018-03-22T05:58:06.788Z,14.70
2018-03-22T05:59:09.267Z,13.93
2018-03-22T06:00:11.786Z,14.20
2018-03-22T06:01:14.276Z,14.32
2018-03-22T06:02:16.768Z,14.10
2018-03-22T06:03:20.019Z,14.55
2018-03-22T06:04:22.516Z,14.50
2018-03-22T06:05:25.770Z,14.32
2018-03-22T06:06:28.278Z,14.65
2018-03-22T06:07:31.517Z,14.63
2018-03-22T06:08:34.022Z,17.55
2018-03-22T06:09:36.529Z,16.40
2018-03-22T06:10:39.010Z,15.00
2018-03-22T06:11:41.502Z,14.75
2018-03-22T06:12:43.978Z,15.30
2018-03-22T06:13:47.210Z,14.20
2018-03-22T06:14:49.696Z,14.32
2018-03-22T06:15:52.170Z,14.13
2018-03-22T06:16:55.638Z,14.27
2018-03-22T06:17:58.143Z,14.43
2018-03-22T06:19:01.377Z,14.38
2018-03-22T06:20:03.850Z,14.40
2018-03-22T06:21:06.334Z,14.18
2018-03-22T06:22:08.861Z,14.55
2018-03-22T06:23:11.344Z,14.70
2018-03-22T06:24:13.818Z,14.48
2018-03-22T06:25:16.296Z,14.63
2018-03-22T06:26:18.867Z,15.15
2018-03-22T06:27:21.378Z,13.68
2018-03-22T06:28:23.867Z,14.52
2018-03-22T06:29:26.342Z,11.30
2018-03-22T06:30:28.833Z,14.48
2018-03-22T06:31:32.099Z,14.18
2018-03-22T06:32:34.594Z,17.00
2018-03-22T06:33:38.588Z,15.52
2018-03-22T06:34:41.838Z,15.45
2018-03-22T06:35:44.318Z,15.45
2018-03-22T06:36:46.786Z,16.40
2018-03-22T06:37:50.061Z,14.73
2018-03-22T06:38:52.555Z,15.40
2018-03-22T06:39:55.030Z,15.18
2018-03-22T06:40:57.526Z,15.48
2018-03-22T06:42:00.003Z,15.75
2018-03-22T06:43:02.914Z,15.65
2018-03-22T06:44:06.178Z,16.23
2018-03-22T06:45:08.650Z,15.65
2018-03-22T06:46:11.127Z,16.08
2018-03-22T06:47:15.025Z,14.55
2018-03-22T06:48:18.287Z,14.95
2018-03-22T06:49:20.772Z,17.08
2018-03-22T06:50:24.011Z,17.05
2018-03-22T06:51:26.893Z,17.15
2018-03-22T06:52:29.367Z,17.42
2018-03-22T06:53:32.405Z,17.10
2018-03-22T06:54:34.886Z,15.98
2018-03-22T06:55:37.376Z,18.02
2018-03-22T06:56:39.856Z,16.12
2018-03-22T06:57:43.119Z,16.25
2018-03-22T06:58:45.608Z,18.20
2018-03-22T06:59:48.884Z,17.25
2018-03-22T07:00:51.374Z,16.85
2018-03-22T07:01:53.869Z,16.33
2018-03-22T07:02:56.353Z,16.65
2018-03-22T07:03:58.846Z,16.85
2018-03-22T07:05:01.328Z,16.80
2018-03-22T07:06:04.009Z,16.40
2018-03-22T07:07:06.511Z,17.33
2018-03-22T07:08:08.990Z,17.12
2018-03-22T07:09:11.506Z,17.83
2018-03-22T07:10:13.998Z,17.15
2018-03-22T07:11:16.481Z,17.02
2018-03-22T07:12:18.954Z,16.85
2018-03-22T07:13:21.454Z,17.48
2018-03-22T07:14:23.953Z,17.37
2018-03-22T07:15:26.473Z,16.85
2018-03-22T07:16:29.731Z,18.65
2018-03-22T07:17:32.225Z,17.60
2018-03-22T07:18:35.462Z,18.85
2018-03-22T07:19:37.963Z,17.52
2018-03-22T07:20:41.213Z,18.60
2018-03-22T07:21:43.690Z,18.23
2018-03-22T07:22:46.166Z,20.35
2018-03-22T07:23:49.470Z,18.65
2018-03-22T07:24:53.148Z,19.12
2018-03-22T07:25:56.418Z,18.37
2018-03-22T07:26:59.670Z,19.30
2018-03-22T07:28:02.157Z,18.55
2018-03-22T07:29:04.626Z,18.58
2018-03-22T07:30:07.127Z,18.60
2018-03-22T07:31:09.610Z,18.48
2018-03-22T07:32:12.117Z,18.92
2018-03-22T07:33:14.598Z,18.30
2018-03-22T07:34:17.099Z,18.40
2018-03-22T07:35:19.633Z,17.42
2018-03-22T07:36:22.878Z,18.50
2018-03-22T07:37:25.364Z,17.35
2018-03-22T07:38:27.849Z,17.62
2018-03-22T07:39:31.106Z,17.10
2018-03-22T07:40:33.601Z,17.65
2018-03-22T07:41:36.837Z,18.50
2018-03-22T07:42:39.350Z,17.52
2018-03-22T07:43:42.608Z,17.58
2018-03-22T07:44:49.084Z,16.40
2018-03-22T07:45:51.560Z,17.12
2018-03-22T07:46:54.805Z,15.55
2018-03-22T07:47:57.282Z,17.27
2018-03-22T07:48:59.770Z,16.15
2018-03-22T07:50:03.021Z,16.58
2018-03-22T07:51:05.523Z,16.33
2018-03-22T07:52:08.036Z,16.05
2018-03-22T07:53:10.506Z,17.40
2018-03-22T07:54:12.986Z,16.12
2018-03-22T07:55:15.453Z,15.85
2018-03-22T07:56:17.971Z,16.60
2018-03-22T07:57:20.449Z,15.02
2018-03-22T07:58:22.946Z,16.55
2018-03-22T07:59:26.215Z,16.52
2018-03-22T08:00:28.694Z,16.05
2018-03-22T08:01:31.980Z,16.30
2018-03-22T08:02:34.512Z,16.50
2018-03-22T08:03:36.985Z,15.70
2018-03-22T08:04:39.484Z,15.88
2018-03-22T08:05:41.981Z,17.60
2018-03-22T08:06:44.483Z,16.62
2018-03-22T08:07:46.966Z,14.60
2018-03-22T08:08:49.438Z,15.93
2018-03-22T08:09:51.920Z,15.02
2018-03-22T08:10:55.172Z,15.90
2018-03-22T08:11:57.670Z,17.45
2018-03-22T08:13:00.911Z,15.52
2018-03-22T08:14:03.392Z,15.50
2018-03-22T08:15:05.866Z,16.37
2018-03-22T08:16:08.339Z,15.02
2018-03-22T08:17:11.596Z,16.12
2018-03-22T08:18:14.075Z,15.27
2018-03-22T08:19:17.317Z,15.50
2018-03-22T08:20:19.798Z,14.98
2018-03-22T08:21:22.278Z,14.95
2018-03-22T08:22:24.763Z,14.52
2018-03-22T08:23:28.014Z,14.98
2018-03-22T08:24:30.498Z,14.52
2018-03-22T08:25:33.758Z,14.55
2018-03-22T08:26:36.222Z,13.85
2018-03-22T08:27:38.710Z,13.27
2018-03-22T08:28:41.190Z,13.90
2018-03-22T08:29:44.451Z,13.13
2018-03-22T08:30:46.933Z,13.52
2018-03-22T08:31:50.187Z,12.93
2018-03-22T08:32:52.678Z,12.55
2018-03-22T08:33:55.914Z,13.57
2018-03-22T08:34:58.402Z,11.82
2018-03-22T08:36:01.667Z,12.55
2018-03-22T08:37:04.146Z,12.02
2018-03-22T08:38:06.654Z,12.25
2018-03-22T08:39:09.146Z,10.77
2018-03-22T08:40:11.618Z,11.60
2018-03-22T08:41:14.092Z,10.95
2018-03-22T08:42:16.586Z,11.23
2018-03-22T08:43:19.066Z,9.90
2018-03-22T08:44:22.303Z,9.88
2018-03-22T08:45:24.782Z,9.90
2018-03-22T08:46:27.263Z,11.15
2018-03-22T08:47:29.752Z,10.52
2018-03-22T08:48:32.610Z,10.10
2018-03-22T08:49:35.862Z,10.10
2018-03-22T08:50:38.330Z,9.30
2018-03-22T08:51:40.803Z,10.18
2018-03-22T08:52:43.275Z,9.57
2018-03-22T08:53:45.763Z,9.65
2018-03-22T08:54:49.012Z,10.35
2018-03-22T08:55:52.261Z,11.10
2018-03-22T08:56:54.726Z,9.82
2018-03-22T08:57:57.200Z,10.60
2018-03-22T08:58:59.690Z,9.77
2018-03-22T09:00:02.182Z,9.30
2018-03-22T09:01:04.670Z,9.85
2018-03-22T09:02:07.146Z,9.55
2018-03-22T09:03:09.638Z,10.52
2018-03-22T09:04:12.128Z,9.27
2018-03-22T09:05:15.369Z,11.00
2018-03-22T09:06:17.847Z,13.68
2018-03-22T09:07:20.353Z,10.57
2018-03-22T09:08:23.612Z,11.20
2018-03-22T09:09:26.150Z,9.07
2018-03-22T09:10:28.623Z,8.68
2018-03-22T09:11:31.095Z,9.32
2018-03-22T09:12:33.578Z,9.90
2018-03-22T09:13:36.050Z,10.48
2018-03-22T09:14:39.309Z,10.85
2018-03-22T09:15:41.775Z,9.80
2018-03-22T09:16:44.254Z,10.55
2018-03-22T09:17:47.505Z,10.95
2018-03-22T09:18:49.973Z,9.88
2018-03-22T09:19:52.467Z,9.45
2018-03-22T09:20:54.942Z,8.73
2018-03-22T09:21:58.188Z,9.50
2018-03-22T09:23:00.655Z,8.95
2018-03-22T09:24:03.124Z,8.93
2018-03-22T09:25:05.659Z,8.65
2018-03-22T09:26:08.152Z,8.95
2018-03-22T09:27:10.647Z,9.55
2018-03-22T09:28:13.887Z,8.65
2018-03-22T09:29:16.390Z,10.93
2018-03-22T09:30:19.672Z,10.30
2018-03-22T09:31:22.906Z,9.15
2018-03-22T09:32:25.402Z,10.55
2018-03-22T09:33:28.658Z,9.18
2018-03-22T09:34:31.128Z,9.45
2018-03-22T09:35:33.626Z,8.73
2018-03-22T09:36:36.138Z,9.20
2018-03-22T09:37:38.642Z,10.65
2018-03-22T09:38:41.138Z,9.00
2018-03-22T09:39:44.398Z,9.07
2018-03-22T09:40:46.895Z,9.27
2018-03-22T09:41:50.177Z,8.55
2018-03-22T09:42:52.628Z,8.68
2018-03-22T09:43:56.747Z,10.07
2018-03-22T09:44:59.234Z,9.10
2018-03-22T09:46:01.726Z,9.30
2018-03-22T09:47:04.204Z,9.23
2018-03-22T09:48:06.725Z,9.18
2018-03-22T09:49:09.955Z,9.93
2018-03-22T09:50:13.206Z,9.55
2018-03-22T09:51:15.700Z,8.68
2018-03-22T09:52:18.188Z,9.07
2018-03-22T09:53:21.434Z,9.05
2018-03-22T09:54:23.938Z,8.98
2018-03-22T09:55:27.178Z,8.93
2018-03-22T09:56:29.694Z,8.32
2018-03-22T09:57:32.159Z,8.23
2018-03-22T09:58:34.629Z,8.80
2018-03-22T09:59:37.103Z,8.25
2018-03-22T10:00:39.583Z,8.57
2018-03-22T10:01:42.093Z,9.27
2018-03-22T10:02:44.566Z,8.82
2018-03-22T10:03:47.814Z,8.23
2018-03-22T10:04:50.293Z,8.68
2018-03-22T10:05:52.786Z,8.38
2018-03-22T10:06:56.052Z,8.75
2018-03-22T10:07:58.534Z,7.95
2018-03-22T10:09:01.770Z,8.93
2018-03-22T10:10:04.244Z,9.30
2018-03-22T10:11:06.725Z,7.85
2018-03-22T10:12:09.239Z,6.85
2018-03-22T10:13:11.738Z,8.52
2018-03-22T10:14:14.202Z,9.13
2018-03-22T10:15:16.668Z,8.90
2018-03-22T10:16:19.188Z,8.25
2018-03-22T10:17:21.686Z,8.52
2018-03-22T10:18:24.167Z,9.13
2018-03-22T10:19:26.666Z,8.30
2018-03-22T10:20:29.905Z,7.82
2018-03-22T10:21:32.381Z,8.20
2018-03-22T10:22:34.866Z,8.10
2018-03-22T10:23:38.117Z,9.38
2018-03-22T10:24:40.599Z,8.55
2018-03-22T10:25:43.066Z,8.27
2018-03-22T10:26:45.538Z,9.30
2018-03-22T10:27:48.810Z,7.72
2018-03-22T10:28:51.306Z,9.05
2018-03-22T10:29:53.787Z,8.77
2018-03-22T10:30:56.272Z,9.07
2018-03-22T10:31:58.758Z,9.13
2018-03-22T10:33:01.247Z,9.85
2018-03-22T10:34:04.486Z,9.27
2018-03-22T10:35:06.962Z,8.82
2018-03-22T10:36:09.438Z,12.35
2018-03-22T10:37:11.918Z,9.73
2018-03-22T10:38:14.443Z,9.02
2018-03-22T10:39:16.923Z,13.62
2018-03-22T10:40:19.395Z,13.38
2018-03-22T10:41:21.875Z,9.23
2018-03-22T10:42:24.354Z,8.77
2018-03-22T10:43:27.607Z,9.48
2018-03-22T10:44:30.091Z,9.85
2018-03-22T10:45:32.558Z,9.05
2018-03-22T10:46:35.814Z,9.32
2018-03-22T10:47:38.297Z,10.07
2018-03-22T10:48:40.809Z,8.23
2018-03-22T10:49:43.277Z,8.35
2018-03-22T10:50:45.814Z,8.32
2018-03-22T10:51:49.047Z,8.45
2018-03-22T10:52:51.566Z,8.30
2018-03-22T10:53:54.843Z,8.25
2018-03-22T10:54:58.082Z,8.30
2018-03-22T10:56:00.550Z,8.13
2018-03-22T10:57:03.030Z,8.38
2018-03-22T10:58:05.494Z,8.10
2018-03-22T10:59:07.985Z,8.70
2018-03-22T11:00:16.846Z,9.10
2018-03-22T11:01:25.129Z,7.90
2018-03-22T11:02:33.363Z,8.25
2018-03-22T11:03:41.630Z,11.10
2018-03-22T11:04:44.114Z,9.05
2018-03-22T11:05:46.609Z,8.07
2018-03-22T11:06:49.079Z,9.52
2018-03-22T11:07:51.558Z,8.70
2018-03-22T11:08:54.820Z,9.48
2018-03-22T11:09:57.310Z,9.05
2018-03-22T11:11:00.583Z,8.00
2018-03-22T11:12:03.831Z,8.00
2018-03-22T11:13:06.308Z,8.35
2018-03-22T11:14:08.790Z,9.18
2018-03-22T11:15:12.838Z,8.23
2018-03-22T11:16:15.566Z,8.70
2018-03-22T11:17:18.851Z,8.60
2018-03-22T11:18:22.216Z,9.30
2018-03-22T11:19:24.821Z,8.30
2018-03-22T11:20:29.001Z,8.55
2018-03-22T11:21:32.330Z,8.52
2018-03-22T11:22:34.804Z,8.73
2018-03-22T11:23:37.267Z,8.27
2018-03-22T11:24:39.759Z,7.95
2018-03-22T11:25:42.250Z,9.05
2018-03-22T11:26:45.508Z,7.93
2018-03-22T11:27:47.990Z,8.90
2018-03-22T11:28:50.485Z,8.23
2018-03-22T11:29:52.986Z,8.75
2018-03-22T11:30:55.475Z,8.60
2018-03-22T11:31:57.949Z,9.07
2018-03-22T11:33:01.202Z,8.15
2018-03-22T11:34:03.689Z,8.57
2018-03-22T11:35:06.163Z,8.52
2018-03-22T11:36:09.412Z,7.97
2018-03-22T11:37:11.883Z,8.55
2018-03-22T11:38:14.350Z,8.93
2018-03-22T11:39:16.814Z,8.55
2018-03-22T11:40:19.297Z,7.62
2018-03-22T11:41:21.813Z,8.75
2018-03-22T11:42:24.298Z,8.90
2018-03-22T11:43:26.786Z,8.75
2018-03-22T11:44:29.262Z,8.82
2018-03-22T11:45:32.499Z,7.80
2018-03-22T11:46:35.014Z,9.05
2018-03-22T11:47:38.261Z,9.27
2018-03-22T11:48:40.735Z,8.57
2018-03-22T11:49:43.238Z,8.10
2018-03-22T11:50:46.488Z,10.48
2018-03-22T11:51:49.473Z,10.25
2018-03-22T11:52:53.468Z,8.85
2018-03-22T11:53:55.950Z,7.95
2018-03-22T11:54:59.193Z,9.30
2018-03-22T11:56:01.679Z,9.40
2018-03-22T11:57:04.171Z,8.23
2018-03-22T11:58:07.413Z,8.68
2018-03-22T11:59:09.911Z,9.20
2018-03-22T12:00:13.153Z,9.63
2018-03-22T12:01:15.625Z,9.25
2018-03-22T12:02:18.126Z,7.78
2018-03-22T12:03:21.367Z,9.00
2018-03-22T12:04:23.834Z,8.48
2018-03-22T12:05:26.309Z,8.80
2018-03-22T12:06:28.782Z,7.85
2018-03-22T12:07:31.267Z,7.65
2018-03-22T12:08:34.503Z,6.53
2018-03-22T12:09:36.973Z,8.05
2018-03-22T12:10:39.459Z,7.57
2018-03-22T12:11:43.569Z,7.65
2018-03-22T12:12:46.854Z,7.75
2018-03-22T12:13:50.102Z,7.37
2018-03-22T12:14:52.596Z,6.18
2018-03-22T12:15:55.825Z,6.97
2018-03-22T12:16:58.320Z,7.68
2018-03-22T12:18:00.830Z,6.82
2018-03-22T12:19:04.063Z,7.00
2018-03-22T12:20:06.538Z,7.78
2018-03-22T12:21:08.998Z,7.43
2018-03-22T12:22:11.470Z,7.45
2018-03-22T12:23:13.966Z,6.80
2018-03-22T12:24:17.248Z,7.03
2018-03-22T12:25:20.482Z,6.72
2018-03-22T12:26:23.020Z,7.80
2018-03-22T12:27:25.510Z,7.65
2018-03-22T12:28:28.014Z,7.03
2018-03-22T12:29:30.475Z,8.57
2018-03-22T12:30:32.947Z,7.20
2018-03-22T12:31:36.181Z,7.82
2018-03-22T12:32:38.671Z,8.25
2018-03-22T12:33:41.930Z,7.65
2018-03-22T12:34:44.454Z,8.43
2018-03-22T12:35:47.709Z,8.65
2018-03-22T12:36:50.182Z,9.00
2018-03-22T12:37:52.648Z,7.40
2018-03-22T12:38:55.914Z,9.07
2018-03-22T12:39:58.388Z,8.68
2018-03-22T12:41:00.858Z,10.65
2018-03-22T12:42:03.327Z,8.18
2018-03-22T12:43:06.584Z,8.77
2018-03-22T12:44:09.071Z,9.02
2018-03-22T12:45:11.535Z,8.13
2018-03-22T12:46:14.776Z,7.87
2018-03-22T12:47:17.375Z,7.62
2018-03-22T12:48:19.846Z,8.38
2018-03-22T12:49:22.354Z,8.45
2018-03-22T12:50:24.828Z,7.60
2018-03-22T12:51:27.319Z,7.87
2018-03-22T12:52:29.801Z,7.90
2018-03-22T12:53:32.391Z,7.87
2018-03-22T12:54:35.650Z,8.40
2018-03-22T12:55:38.165Z,7.50
2018-03-22T12:56:40.664Z,8.43
2018-03-22T12:57:43.146Z,7.95
2018-03-22T12:58:45.620Z,7.78
2018-03-22T12:59:48.872Z,8.02
2018-03-22T13:00:51.358Z,9.57
2018-03-22T13:01:53.822Z,8.50
2018-03-22T13:02:56.291Z,8.88
2018-03-22T13:03:58.766Z,9.45
2018-03-22T13:05:02.030Z,9.00
2018-03-22T13:06:04.498Z,8.82
2018-03-22T13:07:06.967Z,8.40
2018-03-22T13:08:09.452Z,7.95
2018-03-22T13:09:12.696Z,8.02
2018-03-22T13:10:15.212Z,9.30
2018-03-22T13:11:17.748Z,9.30
2018-03-22T13:12:20.218Z,9.70
2018-03-22T13:13:23.453Z,9.90
2018-03-22T13:14:25.941Z,9.98
2018-03-22T13:15:28.453Z,9.63
2018-03-22T13:16:30.930Z,12.23
2018-03-22T13:17:33.411Z,10.40
2018-03-22T13:18:35.905Z,11.32
2018-03-22T13:19:38.412Z,10.68
2018-03-22T13:20:41.258Z,11.80
2018-03-22T13:21:43.742Z,10.98
2018-03-22T13:22:47.139Z,12.43
2018-03-22T13:23:49.628Z,13.93
2018-03-22T13:24:52.098Z,11.25
2018-03-22T13:25:54.597Z,11.27
2018-03-22T13:26:57.075Z,13.02
2018-03-22T13:28:00.320Z,13.05
2018-03-22T13:29:02.812Z,10.95
2018-03-22T13:30:05.312Z,15.27
2018-03-22T13:31:07.810Z,12.30
2018-03-22T13:32:10.283Z,12.52
2018-03-22T13:33:12.790Z,13.62
2018-03-22T13:34:16.030Z,12.07
2018-03-22T13:35:18.521Z,12.68
2018-03-22T13:36:21.013Z,12.02